createdAt,value
2019-01-19T00:00:16.739Z,107.67
2019-01-19T00:03:17.154Z,104.47
2019-01-19T00:06:34.254Z,100.77
2019-01-19T00:09:17.701Z,98.47
2019-01-19T00:12:35.429Z,93.70
2019-01-19T00:15:18.320Z,92.53
2019-01-19T00:18:39.347Z,89.23
2019-01-19T00:21:36.921Z,83.40
2019-01-19T00:24:57.697Z,79.87
2019-01-19T00:27:47.193Z,73.33
2019-01-19T00:30:36.261Z,71.03
2019-01-19T00:33:55.731Z,68.17
2019-01-19T00:36:43.879Z,64.70
2019-01-19T00:39:51.880Z,66.83
2019-01-19T00:42:56.616Z,63.93
2019-01-19T00:46:12.101Z,60.10
2019-01-19T00:48:58.789Z,59.43
2019-01-19T00:52:13.662Z,61.67
2019-01-19T00:55:11.937Z,60.03
2019-01-19T00:58:26.394Z,60.40
2019-01-19T01:01:32.855Z,60.70
2019-01-19T01:04:26.632Z,52.67
2019-01-19T01:07:52.656Z,50.17
2019-01-19T01:10:32.815Z,43.53
2019-01-19T01:13:35.286Z,40.83
2019-01-19T01:16:48.206Z,37.90
2019-01-19T01:20:18.208Z,40.17
2019-01-19T01:23:12.701Z,40.87
2019-01-19T01:26:17.754Z,45.07
2019-01-19T01:29:16.222Z,44.83
2019-01-19T01:32:13.698Z,46.90
2019-01-19T01:35:21.378Z,43.37
2019-01-19T01:38:05.379Z,45.90
2019-01-19T01:41:09.359Z,45.73
2019-01-19T01:44:22.371Z,46.97
2019-01-19T01:47:42.343Z,44.97
2019-01-19T01:50:59.669Z,44.93
2019-01-19T01:54:10.334Z,48.40
2019-01-19T01:56:41.690Z,52.17
2019-01-19T01:59:36.285Z,55.97
2019-01-19T02:02:45.107Z,55.77
2019-01-19T02:06:00.884Z,58.57
2019-01-19T02:09:16.875Z,56.50
2019-01-19T02:12:39.926Z,32.53
2019-01-19T02:15:26.024Z,29.33
2019-01-19T02:18:22.052Z,30.57
2019-01-19T02:21:26.892Z,29.03
2019-01-19T02:24:38.669Z,29.07
2019-01-19T02:27:44.019Z,26.20
2019-01-19T02:30:59.178Z,25.93
2019-01-19T02:34:32.472Z,29.13
2019-01-19T02:37:50.830Z,28.80
2019-01-19T02:40:39.864Z,28.70
2019-01-19T02:43:36.710Z,28.20
2019-01-19T02:46:55.974Z,26.87
2019-01-19T02:50:04.281Z,27.03
2019-01-19T02:53:28.712Z,27.17
2019-01-19T02:56:43.504Z,28.13
2019-01-19T02:59:34.657Z,26.97
2019-01-19T03:02:32.598Z,29.50
2019-01-19T03:05:25.783Z,28.10
2019-01-19T03:08:53.425Z,30.10
2019-01-19T03:11:46.102Z,31.73
2019-01-19T03:14:41.506Z,30.43
2019-01-19T03:18:14.694Z,30.27
2019-01-19T03:21:31.799Z,31.00
2019-01-19T03:24:44.500Z,30.40
2019-01-19T03:27:52.291Z,30.13
2019-01-19T03:30:41.263Z,31.77
2019-01-19T03:33:58.391Z,31.30
2019-01-19T03:37:19.178Z,28.83
2019-01-19T03:40:14.805Z,28.37
2019-01-19T03:43:12.828Z,28.67
2019-01-19T03:46:10.279Z,29.37
2019-01-19T03:49:21.401Z,30.70
2019-01-19T03:52:21.126Z,29.80
2019-01-19T03:55:38.165Z,29.73
2019-01-19T03:58:43.571Z,27.40
2019-01-19T04:01:55.333Z,27.67
2019-01-19T04:04:36.823Z,27.67
2019-01-19T04:07:39.245Z,28.50
2019-01-19T04:10:32.495Z,29.53
2019-01-19T04:13:19.717Z,28.50
2019-01-19T04:16:29.280Z,28.70
2019-01-19T04:19:26.828Z,29.77
2019-01-19T04:22:07.051Z,29.53
2019-01-19T04:25:11.531Z,30.70
2019-01-19T04:27:42.526Z,29.60
2019-01-19T04:30:14.124Z,31.77
2019-01-19T04:32:45.475Z,49.97
2019-01-19T04:35:16.660Z,50.47
2019-01-19T04:37:47.788Z,44.27
2019-01-19T04:40:19.126Z,39.00
2019-01-19T04:42:51.335Z,35.80
2019-01-19T04:45:22.686Z,34.40
2019-01-19T04:47:53.991Z,35.30
2019-01-19T04:50:25.314Z,36.00
2019-01-19T04:52:56.669Z,41.60
2019-01-19T04:55:27.999Z,52.73
2019-01-19T04:57:59.107Z,48.07
2019-01-19T05:00:30.470Z,52.47
2019-01-19T05:03:01.682Z,53.60
2019-01-19T05:05:32.884Z,59.13
2019-01-19T05:08:04.290Z,50.80
2019-01-19T05:10:35.843Z,53.57
2019-01-19T05:13:07.134Z,50.70
2019-01-19T05:15:38.499Z,50.73
2019-01-19T05:18:11.589Z,52.03
2019-01-19T05:20:42.873Z,57.73
2019-01-19T05:23:13.927Z,53.90
2019-01-19T05:25:46.342Z,58.53
2019-01-19T05:28:17.667Z,53.07
2019-01-19T05:30:48.936Z,52.83
2019-01-19T05:33:20.296Z,55.17
2019-01-19T05:35:51.488Z,54.17
2019-01-19T05:38:22.618Z,53.93
2019-01-19T05:40:53.819Z,53.63
2019-01-19T05:43:25.145Z,50.47
2019-01-19T05:45:56.573Z,55.57
2019-01-19T05:48:27.735Z,56.43
2019-01-19T05:50:59.178Z,53.90
2019-01-19T05:53:30.498Z,54.90
2019-01-19T05:56:01.687Z,52.37
2019-01-19T05:58:33.035Z,53.43
2019-01-19T06:01:04.403Z,54.13
2019-01-19T06:03:35.539Z,54.27
2019-01-19T06:06:06.894Z,54.33
2019-01-19T06:08:38.226Z,55.03
2019-01-19T06:11:09.597Z,54.60
2019-01-19T06:13:40.775Z,55.10
2019-01-19T06:16:12.289Z,76.97
2019-01-19T06:18:44.166Z,56.80
2019-01-19T06:21:16.936Z,60.00
2019-01-19T06:23:48.278Z,59.10
2019-01-19T06:26:19.615Z,65.97
2019-01-19T06:28:50.704Z,61.60
2019-01-19T06:31:22.040Z,58.60
2019-01-19T06:33:53.752Z,57.97
2019-01-19T06:36:25.277Z,56.63
2019-01-19T06:38:56.676Z,61.20
2019-01-19T06:41:28.208Z,81.57
2019-01-19T06:43:59.530Z,119.25
2019-01-19T06:46:30.928Z,98.63
2019-01-19T06:49:02.210Z,92.20
2019-01-19T06:51:33.530Z,86.53
2019-01-19T06:54:05.395Z,89.77
2019-01-19T06:56:36.731Z,84.90
2019-01-19T06:59:07.927Z,80.03
2019-01-19T07:01:39.332Z,79.20
2019-01-19T07:04:10.674Z,78.67
2019-01-19T07:06:41.946Z,81.57
2019-01-19T07:09:13.156Z,81.57
2019-01-19T07:11:44.964Z,84.00
2019-01-19T07:14:16.212Z,82.00
2019-01-19T07:16:47.418Z,84.50
2019-01-19T07:19:18.812Z,87.97
2019-01-19T07:21:50.139Z,90.53
2019-01-19T07:24:21.460Z,89.90
2019-01-19T07:26:52.799Z,83.00
2019-01-19T07:29:24.096Z,93.17
2019-01-19T07:31:55.290Z,124.77
2019-01-19T07:34:26.733Z,115.33
2019-01-19T07:36:58.016Z,113.60
2019-01-19T07:39:29.294Z,115.23
2019-01-19T07:42:00.713Z,114.63
2019-01-19T07:44:31.914Z,117.73
2019-01-19T07:47:05.389Z,114.07
2019-01-19T07:49:36.620Z,130.57
2019-01-19T07:52:08.135Z,110.17
2019-01-19T07:54:39.416Z,110.57
2019-01-19T07:57:10.853Z,98.97
2019-01-19T07:59:42.070Z,102.77
2019-01-19T08:02:13.428Z,92.67
2019-01-19T08:04:44.779Z,94.97
2019-01-19T08:07:17.367Z,94.67
2019-01-19T08:09:49.067Z,85.13
2019-01-19T08:12:20.290Z,87.07
2019-01-19T08:14:51.676Z,81.70
2019-01-19T08:17:22.905Z,76.33
2019-01-19T08:19:54.349Z,79.10
2019-01-19T08:22:25.693Z,75.50
2019-01-19T08:24:56.783Z,82.27
2019-01-19T08:27:28.146Z,71.60
2019-01-19T08:29:59.469Z,69.83
2019-01-19T08:32:30.670Z,69.10
2019-01-19T08:35:01.933Z,66.13
2019-01-19T08:37:33.022Z,66.60
2019-01-19T08:40:04.841Z,64.37
2019-01-19T08:42:36.586Z,81.87
2019-01-19T08:45:08.384Z,93.03
2019-01-19T08:47:39.564Z,90.43
2019-01-19T08:50:10.899Z,96.93
2019-01-19T08:52:42.278Z,87.77
2019-01-19T08:55:13.653Z,84.30
2019-01-19T08:57:44.910Z,81.73
2019-01-19T09:00:16.785Z,81.67
2019-01-19T09:02:48.185Z,82.97
2019-01-19T09:05:19.515Z,93.90
2019-01-19T09:07:50.739Z,101.60
2019-01-19T09:10:21.993Z,99.20
2019-01-19T09:12:54.598Z,98.43
2019-01-19T09:15:25.999Z,94.93
2019-01-19T09:17:57.308Z,90.07
2019-01-19T09:20:28.563Z,85.73
2019-01-19T09:23:04.496Z,88.40
2019-01-19T09:25:35.754Z,88.80
2019-01-19T09:28:06.868Z,94.60
2019-01-19T09:30:38.146Z,88.40
2019-01-19T09:33:09.599Z,93.83
2019-01-19T09:35:40.814Z,87.33
2019-01-19T09:38:12.410Z,81.80
2019-01-19T09:40:43.532Z,81.63
2019-01-19T09:43:15.171Z,83.27
2019-01-19T09:45:46.431Z,80.70
2019-01-19T09:48:17.775Z,85.80
2019-01-19T09:50:49.091Z,69.57
2019-01-19T09:53:20.445Z,74.00
2019-01-19T09:55:51.711Z,75.63
2019-01-19T09:58:23.065Z,69.17
2019-01-19T10:00:55.166Z,81.00
2019-01-19T10:03:26.466Z,83.17
2019-01-19T10:05:57.825Z,52.90
2019-01-19T10:08:29.276Z,60.73
2019-01-19T10:11:00.659Z,81.83
2019-01-19T10:13:31.926Z,77.50
2019-01-19T10:16:03.304Z,60.13
2019-01-19T10:18:34.867Z,59.77
2019-01-19T10:21:06.125Z,60.53
2019-01-19T10:23:37.560Z,60.30
2019-01-19T10:26:08.876Z,60.33
2019-01-19T10:28:41.092Z,65.40
2019-01-19T10:31:12.561Z,66.27
2019-01-19T10:33:43.761Z,64.87
2019-01-19T10:36:15.054Z,67.20
2019-01-19T10:38:46.352Z,62.30
2019-01-19T10:41:17.623Z,63.60
2019-01-19T10:43:49.349Z,66.77
2019-01-19T10:46:20.456Z,61.03
2019-01-19T10:48:51.753Z,55.50
2019-01-19T10:51:22.936Z,55.37
2019-01-19T10:53:54.246Z,54.90
2019-01-19T10:56:25.665Z,53.70
2019-01-19T10:58:56.914Z,49.47
2019-01-19T11:01:28.389Z,49.07
2019-01-19T11:03:59.807Z,50.40
2019-01-19T11:06:31.033Z,50.47
2019-01-19T11:09:02.430Z,51.97
2019-01-19T11:11:36.566Z,52.30
2019-01-19T11:14:07.859Z,53.87
2019-01-19T11:16:39.144Z,53.40
2019-01-19T11:19:10.539Z,52.23
2019-01-19T11:21:41.743Z,52.60
2019-01-19T11:24:13.007Z,48.43
2019-01-19T11:26:44.398Z,49.70
2019-01-19T11:29:16.766Z,48.53
2019-01-19T11:31:48.089Z,47.07
2019-01-19T11:34:20.516Z,47.50
2019-01-19T11:36:51.795Z,47.53
2019-01-19T11:39:22.995Z,47.93
2019-01-19T11:41:54.241Z,48.57
2019-01-19T11:44:25.540Z,45.63
2019-01-19T11:46:56.890Z,47.50
2019-01-19T11:49:27.975Z,46.07
2019-01-19T11:51:59.164Z,48.17
2019-01-19T11:54:30.525Z,41.70
2019-01-19T11:57:01.733Z,43.87
2019-01-19T11:59:33.041Z,43.17
2019-01-19T12:02:04.442Z,42.00
2019-01-19T12:04:35.859Z,43.33
2019-01-19T12:07:07.084Z,44.67
2019-01-19T12:09:38.395Z,46.37
2019-01-19T12:12:09.588Z,44.97
2019-01-19T12:14:40.823Z,44.50
2019-01-19T12:17:12.131Z,48.37
2019-01-19T12:19:43.443Z,46.13
2019-01-19T12:22:14.596Z,44.97
2019-01-19T12:24:45.951Z,45.83
2019-01-19T12:27:17.296Z,44.13
2019-01-19T12:29:48.550Z,44.13
2019-01-19T12:32:19.869Z,41.60
2019-01-19T12:34:51.099Z,43.23
2019-01-19T12:37:22.526Z,44.00
2019-01-19T12:39:53.841Z,46.73
2019-01-19T12:42:25.030Z,45.00
2019-01-19T12:44:56.236Z,41.27
2019-01-19T12:47:29.049Z,40.60
2019-01-19T12:50:00.459Z,40.90
2019-01-19T12:52:31.737Z,41.20
2019-01-19T12:55:03.118Z,40.50
2019-01-19T12:57:34.227Z,37.10
2019-01-19T13:00:06.561Z,38.07
2019-01-19T13:02:37.772Z,51.10
2019-01-19T13:05:13.921Z,42.50
2019-01-19T13:07:45.095Z,44.10
2019-01-19T13:10:23.115Z,38.83
2019-01-19T13:13:18.568Z,37.93
2019-01-19T13:16:25.361Z,38.00
2019-01-19T13:19:36.440Z,40.33
2019-01-19T13:22:47.931Z,43.67
2019-01-19T13:26:06.453Z,42.27
2019-01-19T13:29:36.480Z,39.87
2019-01-19T13:32:56.627Z,41.37
2019-01-19T13:36:04.281Z,41.80
2019-01-19T13:39:23.311Z,42.00
2019-01-19T13:42:49.482Z,41.10
2019-01-19T13:46:16.343Z,44.47
2019-01-19T13:49:31.023Z,46.50
2019-01-19T13:52:20.588Z,45.50
2019-01-19T13:55:25.336Z,43.23
2019-01-19T13:58:05.145Z,42.33
2019-01-19T14:01:07.139Z,44.33
2019-01-19T14:04:03.060Z,52.23
2019-01-19T14:06:42.205Z,46.70
2019-01-19T14:09:46.253Z,43.37
2019-01-19T14:13:00.366Z,42.77
2019-01-19T14:15:55.932Z,42.90
2019-01-19T14:19:12.801Z,43.20
2019-01-19T14:22:09.939Z,51.43
2019-01-19T14:25:17.750Z,44.50
2019-01-19T14:28:29.636Z,45.23
2019-01-19T14:31:46.659Z,44.10
2019-01-19T14:34:28.037Z,46.30
2019-01-19T14:37:37.061Z,48.03
2019-01-19T14:41:07.088Z,47.80
2019-01-19T14:44:06.871Z,48.20
2019-01-19T14:46:56.980Z,47.23
2019-01-19T14:50:03.950Z,45.27
2019-01-19T14:53:12.479Z,44.70
2019-01-19T14:56:20.321Z,42.30
2019-01-19T14:59:38.205Z,46.77
2019-01-19T15:03:14.454Z,46.80
2019-01-19T15:06:22.045Z,47.77
2019-01-19T15:09:13.350Z,46.67
2019-01-19T15:12:08.748Z,48.80
2019-01-19T15:15:35.528Z,49.63
2019-01-19T15:18:31.559Z,82.60
2019-01-19T15:21:13.239Z,96.73
2019-01-19T15:24:49.543Z,49.20
2019-01-19T15:27:58.185Z,50.33
2019-01-19T15:31:01.771Z,50.87
2019-01-19T15:33:57.736Z,48.77
2019-01-19T15:37:09.126Z,50.13
2019-01-19T15:40:21.529Z,91.50
2019-01-19T15:43:45.449Z,52.40
2019-01-19T15:46:53.194Z,51.80
2019-01-19T15:49:56.803Z,53.03
2019-01-19T15:53:07.228Z,50.67
2019-01-19T15:56:28.667Z,49.80
2019-01-19T15:59:38.927Z,53.13
2019-01-19T16:02:53.224Z,55.10
2019-01-19T16:06:11.727Z,96.87
2019-01-19T16:09:36.886Z,56.63
2019-01-19T16:12:17.245Z,53.83
2019-01-19T16:15:09.920Z,57.07
2019-01-19T16:18:36.152Z,70.30
2019-01-19T16:21:44.355Z,68.40
2019-01-19T16:24:44.874Z,70.47
2019-01-19T16:27:54.015Z,70.23
2019-01-19T16:30:53.817Z,70.80
2019-01-19T16:34:15.144Z,82.10
2019-01-19T16:37:01.959Z,100.23
2019-01-19T16:40:18.868Z,99.70
2019-01-19T16:43:15.206Z,102.87
2019-01-19T16:46:31.711Z,56.63
2019-01-19T16:49:35.221Z,119.03
2019-01-19T16:52:37.377Z,52.53
2019-01-19T16:55:30.337Z,100.43
2019-01-19T16:58:57.677Z,92.57
2019-01-19T17:02:09.327Z,103.13
2019-01-19T17:05:10.305Z,130.13
2019-01-19T17:08:22.960Z,98.83
2019-01-19T17:11:37.172Z,106.97
2019-01-19T17:15:01.524Z,23.83
2019-01-19T17:18:12.648Z,24.73
2019-01-19T17:21:19.365Z,24.53
2019-01-19T17:24:30.754Z,26.50
2019-01-19T17:27:37.025Z,33.67
2019-01-19T17:30:39.744Z,37.03
2019-01-19T17:33:48.132Z,43.60
2019-01-19T17:36:53.669Z,43.20
2019-01-19T17:40:01.702Z,32.03
2019-01-19T17:43:17.932Z,29.40
2019-01-19T17:46:00.235Z,28.13
2019-01-19T17:48:53.246Z,29.93
2019-01-19T17:52:11.160Z,28.90
2019-01-19T17:55:14.715Z,32.33
2019-01-19T17:58:23.950Z,28.90
2019-01-19T18:01:30.650Z,26.87
2019-01-19T18:04:20.165Z,22.67
2019-01-19T18:07:04.606Z,24.37
2019-01-19T18:10:06.113Z,21.60
2019-01-19T18:13:33.605Z,21.07
2019-01-19T18:16:41.617Z,19.77
2019-01-19T18:19:46.136Z,17.23
2019-01-19T18:23:09.911Z,16.67
2019-01-19T18:26:04.131Z,16.47
2019-01-19T18:29:17.183Z,17.33
2019-01-19T18:32:08.793Z,18.20
2019-01-19T18:35:14.554Z,17.40
2019-01-19T18:38:28.176Z,18.80
2019-01-19T18:41:30.286Z,19.03
2019-01-19T18:44:39.396Z,18.93
2019-01-19T18:47:47.593Z,21.67
2019-01-19T18:50:43.989Z,21.90
2019-01-19T18:53:59.597Z,21.67
2019-01-19T18:57:12.358Z,21.20
2019-01-19T18:59:53.179Z,22.80
2019-01-19T19:02:51.537Z,22.67
2019-01-19T19:06:03.826Z,22.83
2019-01-19T19:09:08.713Z,23.80
2019-01-19T19:12:15.641Z,27.10
2019-01-19T19:15:10.622Z,25.20
2019-01-19T19:18:18.056Z,24.67
2019-01-19T19:21:19.982Z,24.80
2019-01-19T19:24:49.510Z,26.47
2019-01-19T19:27:31.750Z,25.47
2019-01-19T19:30:48.759Z,28.57
2019-01-19T19:34:08.941Z,30.83
2019-01-19T19:37:27.443Z,32.13
2019-01-19T19:40:30.944Z,33.27
2019-01-19T19:43:28.710Z,30.43
2019-01-19T19:46:10.743Z,33.23
2019-01-19T19:49:08.432Z,30.90
2019-01-19T19:51:56.458Z,35.10
2019-01-19T19:54:28.500Z,32.53
2019-01-19T19:56:59.839Z,33.47
2019-01-19T19:59:31.216Z,32.07
2019-01-19T20:02:02.542Z,34.80
2019-01-19T20:04:33.763Z,34.80
2019-01-19T20:07:05.514Z,34.63
2019-01-19T20:09:36.801Z,34.87
2019-01-19T20:12:09.178Z,34.27
2019-01-19T20:14:40.621Z,37.50
2019-01-19T20:17:11.964Z,39.10
2019-01-19T20:19:43.285Z,38.63
2019-01-19T20:22:14.675Z,39.93
2019-01-19T20:24:45.956Z,39.07
2019-01-19T20:27:17.339Z,39.97
2019-01-19T20:29:48.629Z,41.27
2019-01-19T20:32:19.828Z,42.53
2019-01-19T20:34:50.939Z,40.93
2019-01-19T20:37:22.312Z,40.77
2019-01-19T20:39:53.436Z,41.97
2019-01-19T20:42:24.575Z,40.57
2019-01-19T20:44:55.791Z,42.70
2019-01-19T20:47:27.193Z,40.87
2019-01-19T20:49:58.522Z,40.07
2019-01-19T20:52:29.733Z,45.53
2019-01-19T20:55:00.945Z,46.17
2019-01-19T20:57:32.123Z,42.80
2019-01-19T21:00:08.676Z,38.90
2019-01-19T21:02:40.077Z,37.97
2019-01-19T21:05:11.371Z,38.73
2019-01-19T21:07:42.660Z,36.73
2019-01-19T21:10:14.290Z,37.00
2019-01-19T21:12:46.555Z,39.40
2019-01-19T21:15:17.748Z,38.73
2019-01-19T21:17:55.627Z,40.03
2019-01-19T21:20:22.041Z,39.30
2019-01-19T21:22:53.365Z,38.17
2019-01-19T21:25:24.784Z,39.90
2019-01-19T21:27:56.090Z,38.70
2019-01-19T21:30:27.483Z,40.37
2019-01-19T21:32:58.928Z,39.97
2019-01-19T21:35:30.204Z,40.90
2019-01-19T21:38:02.763Z,40.63
2019-01-19T21:40:38.957Z,40.40
2019-01-19T21:43:07.036Z,40.10
2019-01-19T21:45:38.349Z,40.67
2019-01-19T21:48:09.552Z,42.77
2019-01-19T21:50:40.736Z,42.80
2019-01-19T21:53:11.974Z,47.60
2019-01-19T21:55:43.358Z,42.93
2019-01-19T21:58:14.869Z,43.60
2019-01-19T22:00:46.100Z,46.13
2019-01-19T22:03:17.552Z,44.23
2019-01-19T22:05:49.715Z,45.60
2019-01-19T22:08:21.163Z,46.83
2019-01-19T22:10:52.485Z,46.40
2019-01-19T22:13:23.625Z,45.83
2019-01-19T22:15:54.894Z,45.00
2019-01-19T22:18:26.256Z,47.57
2019-01-19T22:20:57.673Z,38.53
2019-01-19T22:23:29.002Z,44.67
2019-01-19T22:26:00.238Z,44.77
2019-01-19T22:28:31.571Z,44.27
2019-01-19T22:31:02.789Z,45.43
2019-01-19T22:33:34.306Z,44.80
2019-01-19T22:36:05.594Z,43.83
2019-01-19T22:38:36.759Z,42.60
2019-01-19T22:41:08.034Z,45.90
2019-01-19T22:43:39.639Z,46.60
2019-01-19T22:46:11.070Z,43.93
2019-01-19T22:48:42.511Z,43.90
2019-01-19T22:51:13.839Z,46.57
2019-01-19T22:53:45.104Z,45.17
2019-01-19T22:56:16.358Z,44.47
2019-01-19T22:58:47.565Z,47.13
2019-01-19T23:01:35.032Z,44.07
2019-01-19T23:04:06.401Z,45.90
2019-01-19T23:06:37.532Z,46.10
2019-01-19T23:09:13.663Z,44.03
2019-01-19T23:11:44.959Z,46.43
2019-01-19T23:14:16.356Z,44.13
2019-01-19T23:16:47.598Z,47.00
2019-01-19T23:19:18.835Z,38.77
2019-01-19T23:21:50.161Z,45.37
2019-01-19T23:24:21.529Z,44.20
2019-01-19T23:26:54.346Z,46.00
2019-01-19T23:29:25.483Z,44.60
2019-01-19T23:31:56.660Z,45.20
2019-01-19T23:34:28.032Z,43.97
2019-01-19T23:36:59.430Z,44.63
2019-01-19T23:39:30.580Z,43.37
2019-01-19T23:42:01.955Z,44.87
2019-01-19T23:44:33.311Z,40.60
2019-01-19T23:47:04.778Z,42.60
2019-01-19T23:49:36.219Z,42.23
2019-01-19T23:52:07.556Z,41.33
2019-01-19T23:54:38.818Z,39.83
2019-01-19T23:57:09.939Z,41.30
2019-01-19T23:59:41.182Z,40.37
